Decimomannu, Italy

01:41 PM CET del 10 Dicembre 2016 (GMT +0100)
Decimoputzu - Decimoputzu | | Change Station

Alt. 0 ft 39.34 °N, 8.91 °E | Updated 10 minutes ago

Sereno
Sereno
63.7 °F
Sembra 63.7 °F
N
4.3
Vento Variabile Vento da NO
Gusts 8.1 mph

Oggi
Massima -- | Minima -- °F
--% Possibilità di precip.
Ieri
Massima -- | Minima -- °F
Precip. -- in
Pressione 30.39 in
Visibilità -9999.0 miglia
Nuvole
Punto di rugiada 53 °F
Umidità 69%
Piovosità 0.01 in
Spessore del manto nevoso Non disponibile.
7:33 AM 5:00 PM
Gobba a ponente, 83% visible
METAR LIEE 101220Z 31007KT CAVOK 17/10 Q1029
Pressione 30.39 in
Visibilità -9999.0 miglia
Nuvole
Punto di rugiada 53 °F
Umidità 69%
Piovosità 0.01 in
Spessore del manto nevoso Non disponibile.
7:33 AM 5:00 PM
Gobba a ponente, 83% visible
METAR LIEE 101220Z 31007KT CAVOK 17/10 Q1029

10-Day Weather Forecast

×

Almanac

Astronomia

Dec. 10, 2016 Alba Tramonto
Ora attuale
Crepuscolo civile
Crepuscolo nautico
Crepuscolo astronomico
Luna
Estensione della luce visibile
Lunghezza del giorno
Tomorrow will be .
, % of the Moon is Illuminated

Gli estremi di oggi

Massime Regione Minime Regione

Community

WunderPhotos

Upload Photos

1,956,540 foto caricate!

WunderBlog® & News

Nearby

Qualità dell'aria

  Qualità dell'aria Indice AQ Inquinante
Not available.

Profondità neve

Stazione Profondità Altitudine

Attività sismica

Città  Distanza Mag. Data & Ora
Minimo Magnitudo Mostrato è 2.5.

Temperature delle acque costiere

Località Temperatura

Stations

Stazioni meteo nelle vicinanze

Ubicazione della stazione Temp. Raffreddamento del vento Punto di rugiada Umidità Vento Precip. Alt. Aggiornato Tipo